Time;durP1;ratioP1;P1;durP2;ratioP2;P2;SDS_P1;SDS_P2;PMS_P1;PMS_P2;Temp;Humidity;BMP_temperature;BMP_pressure;BME280_temperature;BME280_humidity;BME280_pressure;Samples;Min_cycle;Max_cycle;Signal;HPM_P1;HPM_P2
2022/04/15 00:01:21;;;;;;;16.95;10.80;;;14.90;64.00;;;;;;5053808;28;20037;-66
2022/04/15 00:03:48;;;;;;;19.70;11.05;;;14.90;64.00;;;;;;5053067;28;20032;-66
2022/04/15 00:06:13;;;;;;;15.55;10.95;;;14.80;64.00;;;;;;5052740;28;20388;-69
2022/04/15 00:08:40;;;;;;;18.45;11.35;;;14.80;64.20;;;;;;5053184;28;20123;-67
2022/04/15 00:11:06;;;;;;;21.75;11.93;;;14.80;64.30;;;;;;5053878;28;20294;-67
2022/04/15 00:13:33;;;;;;;16.52;11.98;;;14.80;64.80;;;;;;5053495;28;20505;-67
2022/04/15 00:16:03;;;;;;;16.35;11.32;;;14.70;64.80;;;;;;5053907;28;20032;-67
2022/04/15 00:18:29;;;;;;;17.30;11.55;;;14.80;64.90;;;;;;5053055;28;20144;-68
2022/04/15 00:20:55;;;;;;;15.48;10.82;;;14.80;64.60;;;;;;5052513;28;20477;-68
2022/04/15 00:23:22;;;;;;;18.38;12.63;;;14.70;64.60;;;;;;5052710;28;20033;-66
2022/04/15 00:25:52;;;;;;;24.80;12.38;;;14.70;64.50;;;;;;5052801;28;20068;-67
2022/04/15 00:28:18;;;;;;;17.63;11.90;;;14.70;64.50;;;;;;5052999;28;20147;-67
2022/04/15 00:30:44;;;;;;;17.38;10.98;;;14.60;64.50;;;;;;5053057;28;20397;-69
2022/04/15 00:33:10;;;;;;;22.40;11.93;;;14.60;64.40;;;;;;5052453;28;20033;-66
2022/04/15 00:35:36;;;;;;;15.50;9.98;;;14.60;64.10;;;;;;5053120;28;20508;-67
2022/04/15 00:38:02;;;;;;;14.80;8.75;;;14.60;64.00;;;;;;5052544;28;20033;-66
2022/04/15 00:40:28;;;;;;;12.20;9.63;;;14.50;63.70;;;;;;5051928;28;20045;-69
2022/04/15 00:42:54;;;;;;;16.08;9.85;;;14.40;63.70;;;;;;5052551;28;20056;-68
2022/04/15 00:45:20;;;;;;;15.25;9.07;;;14.30;63.80;;;;;;5052465;28;20051;-66
2022/04/15 00:47:49;;;;;;;16.58;10.18;;;14.30;63.80;;;;;;5053024;28;20025;-68
2022/04/15 00:50:15;;;;;;;15.25;9.57;;;14.30;63.90;;;;;;5053184;28;20037;-66
2022/04/15 00:52:46;;;;;;;15.35;9.63;;;14.20;64.20;;;;;;5053199;28;20041;-66
2022/04/15 00:55:13;;;;;;;18.50;10.63;;;14.20;64.60;;;;;;5053148;28;20052;-68
2022/04/15 00:57:43;;;;;;;15.30;10.75;;;14.10;64.90;;;;;;5052809;28;20041;-66
2022/04/15 01:00:12;;;;;;;19.02;10.70;;;14.10;65.30;;;;;;5050780;28;20053;-66
2022/04/15 01:02:39;;;;;;;15.75;10.65;;;14.10;65.50;;;;;;5050650;28;20112;-66
2022/04/15 01:05:07;;;;;;;17.65;10.60;;;14.00;65.70;;;;;;5052130;28;20036;-66
2022/04/15 01:07:34;;;;;;;14.35;11.02;;;14.00;66.00;;;;;;5053381;28;20166;-66
2022/04/15 01:10:03;;;;;;;13.80;10.25;;;14.00;66.10;;;;;;5053746;28;20041;-68
2022/04/15 01:12:30;;;;;;;15.13;10.35;;;14.00;66.30;;;;;;5053190;28;20033;-66
2022/04/15 01:15:00;;;;;;;17.40;11.20;;;13.90;66.30;;;;;;5053169;28;20087;-66
2022/04/15 01:17:28;;;;;;;16.95;10.32;;;13.90;66.40;;;;;;5052844;28;20037;-66
2022/04/15 01:19:54;;;;;;;15.23;9.20;;;13.90;66.50;;;;;;5052943;28;20102;-65
2022/04/15 01:22:23;;;;;;;21.65;9.55;;;13.90;66.70;;;;;;5052138;28;20548;-65
2022/04/15 01:24:50;;;;;;;15.13;8.20;;;13.90;66.70;;;;;;5052107;28;20033;-66
2022/04/15 01:27:45;;;;;;;18.50;8.23;;;13.90;66.40;;;;;;5053004;28;20072;-65
2022/04/15 01:30:19;;;;;;;13.13;7.80;;;13.90;66.60;;;;;;5052025;28;20108;-69
2022/04/15 01:32:45;;;;;;;15.63;7.32;;;13.90;66.60;;;;;;5052619;28;20033;-69
2022/04/15 01:35:14;;;;;;;14.32;7.13;;;13.90;66.40;;;;;;5052475;28;20087;-65
2022/04/15 01:37:40;;;;;;;10.55;7.25;;;13.90;66.40;;;;;;5052665;28;20037;-65
2022/04/15 01:40:08;;;;;;;12.88;6.80;;;13.90;66.50;;;;;;5052692;28;20378;-68
2022/04/15 01:42:35;;;;;;;13.63;6.90;;;13.90;66.50;;;;;;5051845;28;20036;-65
2022/04/15 01:45:03;;;;;;;22.42;7.80;;;13.90;66.20;;;;;;5051921;28;20112;-66
2022/04/15 01:47:28;;;;;;;19.88;7.97;;;13.90;66.00;;;;;;5053094;28;20084;-66
2022/04/15 01:49:54;;;;;;;15.30;9.75;;;13.80;66.00;;;;;;5053601;28;20409;-66
2022/04/15 01:52:20;;;;;;;14.73;9.68;;;13.70;66.10;;;;;;5053583;28;20087;-66
2022/04/15 01:54:46;;;;;;;15.27;9.88;;;13.70;66.20;;;;;;5053442;28;20022;-66
2022/04/15 01:57:13;;;;;;;15.80;10.13;;;13.70;66.30;;;;;;5053245;28;20037;-68
2022/04/15 01:59:39;;;;;;;17.83;10.32;;;13.70;66.40;;;;;;5052901;28;20121;-69
2022/04/15 02:02:06;;;;;;;22.02;10.65;;;13.60;66.40;;;;;;5053188;28;20033;-66
2022/04/15 02:04:33;;;;;;;17.77;10.23;;;13.50;66.40;;;;;;5053362;28;20036;-66
2022/04/15 02:06:59;;;;;;;15.05;10.85;;;13.50;66.20;;;;;;5053185;28;20508;-68
2022/04/15 02:09:25;;;;;;;14.88;9.93;;;13.50;66.40;;;;;;5053022;28;20128;-67
2022/04/15 02:11:51;;;;;;;12.85;10.13;;;13.40;66.70;;;;;;5053092;28;20064;-66
2022/04/15 02:14:18;;;;;;;14.70;10.15;;;13.40;66.90;;;;;;5052219;28;20048;-66
2022/04/15 02:16:45;;;;;;;13.55;9.70;;;13.40;66.80;;;;;;5053176;28;20045;-67
2022/04/15 02:19:10;;;;;;;17.00;9.68;;;13.30;67.50;;;;;;5052677;28;20077;-67
2022/04/15 02:21:36;;;;;;;16.45;9.65;;;13.30;66.90;;;;;;5052940;28;20477;-66
2022/04/15 02:24:02;;;;;;;13.25;9.82;;;13.30;67.10;;;;;;5052960;28;20033;-66
2022/04/15 02:26:28;;;;;;;14.10;9.73;;;13.30;67.40;;;;;;5053107;28;20370;-66
2022/04/15 02:28:54;;;;;;;13.55;10.07;;;13.20;67.30;;;;;;5052755;28;20033;-66
2022/04/15 02:31:19;;;;;;;13.32;9.75;;;13.20;67.70;;;;;;5052994;28;20511;-66
2022/04/15 02:33:45;;;;;;;18.52;9.68;;;13.10;67.90;;;;;;5052746;28;20036;-66
2022/04/15 02:36:11;;;;;;;13.27;9.60;;;13.20;68.20;;;;;;5052746;28;20116;-66
2022/04/15 02:38:36;;;;;;;15.05;9.38;;;13.10;68.30;;;;;;5052671;28;20037;-66
2022/04/15 02:41:04;;;;;;;17.90;9.75;;;13.10;68.10;;;;;;5052761;28;20025;-66
2022/04/15 02:43:33;;;;;;;15.48;9.27;;;13.10;67.80;;;;;;5052840;28;20037;-66
2022/04/15 02:46:00;;;;;;;15.50;8.32;;;13.10;68.00;;;;;;5052939;28;20523;-66
2022/04/15 02:48:27;;;;;;;13.75;8.45;;;13.10;67.60;;;;;;5052728;28;20086;-66
2022/04/15 02:50:53;;;;;;;13.07;8.18;;;13.10;66.80;;;;;;5052686;28;20044;-66
2022/04/15 02:53:19;;;;;;;13.75;8.52;;;13.00;66.60;;;;;;5052802;28;20489;-66
2022/04/15 02:55:45;;;;;;;13.95;8.45;;;13.00;66.40;;;;;;5052767;28;20048;-68
2022/04/15 02:58:11;;;;;;;14.48;8.25;;;12.90;66.50;;;;;;5052364;28;20033;-69
2022/04/15 03:00:37;;;;;;;11.98;7.80;;;12.90;66.60;;;;;;5052360;28;20501;-66
2022/04/15 03:03:03;;;;;;;9.43;7.43;;;12.80;67.00;;;;;;5052650;28;20068;-65
2022/04/15 03:05:30;;;;;;;11.85;8.45;;;12.70;67.10;;;;;;5052671;28;20486;-66
2022/04/15 03:07:56;;;;;;;10.93;7.18;;;12.70;67.30;;;;;;5052349;28;20029;-65
2022/04/15 03:10:22;;;;;;;11.18;7.53;;;12.70;67.50;;;;;;5052353;28;20033;-66
2022/04/15 03:12:47;;;;;;;17.63;8.27;;;12.70;67.50;;;;;;5052497;28;20102;-66
2022/04/15 03:15:13;;;;;;;15.00;8.32;;;12.70;67.70;;;;;;5052686;28;20037;-66
2022/04/15 03:17:39;;;;;;;14.80;8.07;;;12.60;67.70;;;;;;5052442;28;20100;-66
2022/04/15 03:20:07;;;;;;;33.72;9.23;;;12.60;67.60;;;;;;5052244;28;20072;-66
2022/04/15 03:22:41;;;;;;;28.95;9.38;;;12.60;67.70;;;;;;5052298;28;20429;-67
2022/04/15 03:25:09;;;;;;;24.05;8.88;;;12.50;67.70;;;;;;5053512;28;20487;-66
2022/04/15 03:27:34;;;;;;;18.90;9.20;;;12.50;68.20;;;;;;5056279;28;20469;-66
2022/04/15 03:30:00;;;;;;;22.63;8.80;;;12.50;68.40;;;;;;5056171;28;20135;-65
2022/04/15 03:32:26;;;;;;;16.70;8.93;;;12.50;68.30;;;;;;5055881;28;20124;-66
2022/04/15 03:34:53;;;;;;;19.80;8.20;;;12.50;68.20;;;;;;5056049;28;20150;-65
2022/04/15 03:37:18;;;;;;;21.88;8.32;;;12.40;68.20;;;;;;5056136;28;20537;-65
2022/04/15 03:39:44;;;;;;;23.30;8.68;;;12.40;68.20;;;;;;5055561;28;20128;-66
2022/04/15 03:42:10;;;;;;;23.30;8.10;;;12.40;68.30;;;;;;5055785;28;20048;-66
2022/04/15 03:44:36;;;;;;;16.95;7.35;;;12.40;68.10;;;;;;5055908;28;20037;-66
2022/04/15 03:47:03;;;;;;;18.08;7.25;;;12.40;67.70;;;;;;5055800;28;20035;-65
2022/04/15 03:49:29;;;;;;;16.40;8.32;;;12.30;67.60;;;;;;5056137;28;20033;-66
2022/04/15 03:51:55;;;;;;;23.17;7.45;;;12.20;67.70;;;;;;5055681;28;20033;-65
2022/04/15 03:54:20;;;;;;;22.63;7.70;;;12.20;68.00;;;;;;5055438;28;20037;-65
2022/04/15 03:56:46;;;;;;;12.63;7.63;;;12.20;68.20;;;;;;5055751;28;20037;-65
2022/04/15 03:59:13;;;;;;;21.20;9.00;;;12.10;68.40;;;;;;5055606;28;20064;-66
2022/04/15 04:01:38;;;;;;;29.45;8.38;;;12.20;68.40;;;;;;5055457;28;20481;-69
2022/04/15 04:04:05;;;;;;;32.13;9.77;;;12.10;68.40;;;;;;5055426;28;20072;-65
2022/04/15 04:06:31;;;;;;;21.33;8.20;;;12.20;68.60;;;;;;5055496;28;20481;-67
2022/04/15 04:08:56;;;;;;;15.07;8.60;;;12.10;68.60;;;;;;5055408;28;20040;-65
2022/04/15 04:11:22;;;;;;;22.20;8.35;;;12.10;68.70;;;;;;5055619;28;20045;-68
2022/04/15 04:13:48;;;;;;;21.45;8.35;;;12.10;68.80;;;;;;5055150;28;20043;-66
2022/04/15 04:16:14;;;;;;;28.58;9.55;;;12.10;68.90;;;;;;5055222;28;20037;-65
2022/04/15 04:18:41;;;;;;;24.50;8.25;;;12.10;69.00;;;;;;5054861;28;20724;-65
2022/04/15 04:21:07;;;;;;;22.48;8.75;;;12.10;69.10;;;;;;5055076;28;20043;-65
2022/04/15 04:23:34;;;;;;;23.25;8.32;;;12.00;69.20;;;;;;5055114;28;20396;-66
2022/04/15 04:26:00;;;;;;;26.30;8.82;;;12.00;69.40;;;;;;5054999;28;20033;-66
2022/04/15 04:28:26;;;;;;;17.90;8.10;;;12.00;69.60;;;;;;5055129;28;20052;-65
2022/04/15 04:30:54;;;;;;;16.38;8.02;;;12.00;69.50;;;;;;5055091;28;20037;-65
2022/04/15 04:33:21;;;;;;;17.65;8.27;;;12.00;69.20;;;;;;5054932;28;20061;-65
2022/04/15 04:35:47;;;;;;;15.00;9.00;;;12.00;68.90;;;;;;5054460;28;20125;-67
2022/04/15 04:38:13;;;;;;;20.25;8.02;;;12.00;69.20;;;;;;5054114;28;20452;-66
2022/04/15 04:40:39;;;;;;;12.90;8.60;;;12.00;69.10;;;;;;5054742;28;20037;-65
2022/04/15 04:43:05;;;;;;;12.55;7.88;;;12.00;69.00;;;;;;5054668;28;20060;-66
2022/04/15 04:45:34;;;;;;;19.23;9.20;;;11.90;68.90;;;;;;5054717;28;20079;-68
2022/04/15 04:48:04;;;;;;;12.80;8.10;;;11.90;68.90;;;;;;5054525;28;20119;-66
2022/04/15 04:50:31;;;;;;;13.60;7.80;;;11.90;69.00;;;;;;5054540;28;20022;-66
2022/04/15 04:52:58;;;;;;;16.92;8.63;;;11.80;69.10;;;;;;5054406;28;20037;-65
2022/04/15 04:55:24;;;;;;;18.65;8.50;;;11.80;69.40;;;;;;5054738;28;20039;-65
2022/04/15 04:57:50;;;;;;;18.30;8.80;;;11.70;69.60;;;;;;5054748;28;20041;-66
2022/04/15 05:00:17;;;;;;;16.05;8.60;;;11.80;69.80;;;;;;5054090;28;20049;-66
2022/04/15 05:02:44;;;;;;;17.45;8.20;;;11.70;69.90;;;;;;5054272;28;20075;-66
2022/04/15 05:05:11;;;;;;;22.77;8.45;;;11.80;70.20;;;;;;5054351;28;20033;-68
2022/04/15 05:07:37;;;;;;;19.35;8.90;;;11.80;70.70;;;;;;5054236;28;20136;-67
2022/04/15 05:10:04;;;;;;;15.15;8.75;;;11.80;70.80;;;;;;5054253;28;20044;-68
2022/04/15 05:12:30;;;;;;;26.27;10.20;;;11.80;71.10;;;;;;5054202;28;20401;-65
2022/04/15 05:14:55;;;;;;;18.75;9.02;;;11.90;71.00;;;;;;5054299;28;20043;-66
2022/04/15 05:17:21;;;;;;;17.73;9.70;;;11.90;70.80;;;;;;5053906;28;20037;-65
2022/04/15 05:19:47;;;;;;;24.17;10.88;;;11.90;70.80;;;;;;5053988;28;20448;-66
2022/04/15 05:22:13;;;;;;;18.90;9.10;;;11.90;70.90;;;;;;5053706;28;20469;-68
2022/04/15 05:24:39;;;;;;;16.38;9.57;;;11.90;71.00;;;;;;5053725;28;20404;-68
2022/04/15 05:27:05;;;;;;;19.48;8.98;;;11.90;71.30;;;;;;5053836;28;20037;-66
2022/04/15 05:29:31;;;;;;;19.63;9.63;;;12.00;71.60;;;;;;5053844;28;20112;-65
2022/04/15 05:31:57;;;;;;;17.95;9.13;;;12.00;71.60;;;;;;5053886;28;20080;-66
2022/04/15 05:34:23;;;;;;;33.28;9.55;;;12.00;71.60;;;;;;5053492;28;20623;-66
2022/04/15 05:36:48;;;;;;;30.10;10.20;;;12.10;71.80;;;;;;5053844;28;20481;-64
2022/04/15 05:39:14;;;;;;;31.58;11.10;;;12.10;71.60;;;;;;5054037;28;20088;-65
2022/04/15 05:41:40;;;;;;;23.58;9.63;;;12.20;71.60;;;;;;5052923;28;20029;-66
2022/04/15 05:44:08;;;;;;;14.73;8.77;;;12.20;71.90;;;;;;5052704;28;20041;-66
2022/04/15 05:46:37;;;;;;;14.38;8.30;;;12.20;71.80;;;;;;5052567;28;20121;-67
2022/04/15 05:49:04;;;;;;;13.07;7.72;;;12.30;72.10;;;;;;5052591;28;20477;-65
2022/04/15 05:51:30;;;;;;;14.55;8.90;;;12.30;72.10;;;;;;5052847;28;20485;-65
2022/04/15 05:53:56;;;;;;;17.80;9.20;;;12.40;71.90;;;;;;5052645;28;20041;-65
2022/04/15 05:56:21;;;;;;;17.83;10.18;;;12.40;71.80;;;;;;5053117;28;20037;-65
2022/04/15 05:58:47;;;;;;;19.88;10.23;;;12.40;71.70;;;;;;5052636;28;20035;-66
2022/04/15 06:01:13;;;;;;;17.40;9.75;;;12.40;71.80;;;;;;5053001;28;20128;-65
2022/04/15 06:03:38;;;;;;;18.25;9.00;;;12.50;71.80;;;;;;5052532;28;20060;-66
2022/04/15 06:06:05;;;;;;;13.40;8.10;;;12.50;71.80;;;;;;5051442;28;20087;-65
2022/04/15 06:08:31;;;;;;;16.45;8.23;;;12.50;71.40;;;;;;5050486;28;20036;-69
2022/04/15 06:10:57;;;;;;;11.02;7.18;;;12.60;71.30;;;;;;5051916;28;20044;-66
2022/04/15 06:13:23;;;;;;;19.48;7.70;;;12.60;71.10;;;;;;5051939;28;20408;-68
2022/04/15 06:15:58;;;;;;;21.55;7.93;;;12.70;70.60;;;;;;5051513;28;20040;-68
2022/04/15 06:18:26;;;;;;;18.63;7.65;;;12.70;70.70;;;;;;5052482;28;20436;-66
2022/04/15 06:20:52;;;;;;;15.05;7.88;;;12.80;70.80;;;;;;5050799;28;20041;-67
2022/04/15 06:23:19;;;;;;;16.48;7.90;;;12.80;70.70;;;;;;5041799;28;20045;-68
2022/04/15 06:25:45;;;;;;;19.15;7.75;;;12.90;70.60;;;;;;5052357;28;20656;-67
2022/04/15 06:28:12;;;;;;;13.05;7.45;;;12.90;70.50;;;;;;5052357;28;20090;-68
2022/04/15 06:30:38;;;;;;;14.90;7.05;;;13.00;70.20;;;;;;5052330;28;20029;-66
2022/04/15 06:33:06;;;;;;;13.85;7.25;;;13.00;70.00;;;;;;5052403;28;20048;-66
2022/04/15 06:35:32;;;;;;;17.42;7.18;;;13.10;70.00;;;;;;5052497;28;20033;-65
2022/04/15 06:37:58;;;;;;;13.68;7.00;;;13.10;69.90;;;;;;5052193;28;20126;-66
2022/04/15 06:40:24;;;;;;;19.00;6.90;;;13.10;70.00;;;;;;5052819;28;20083;-66
2022/04/15 06:42:49;;;;;;;12.63;7.03;;;13.20;69.90;;;;;;5052594;28;20478;-66
2022/04/15 06:45:15;;;;;;;13.57;7.15;;;13.30;69.80;;;;;;5052588;28;20207;-65
2022/04/15 06:47:41;;;;;;;20.35;8.07;;;13.30;69.80;;;;;;5052635;28;20108;-66
2022/04/15 06:50:07;;;;;;;13.95;7.45;;;13.30;69.80;;;;;;5052581;28;20029;-65
2022/04/15 06:52:32;;;;;;;9.95;5.75;;;13.40;69.80;;;;;;5052581;28;20036;-66
2022/04/15 06:54:58;;;;;;;15.00;6.38;;;13.40;69.50;;;;;;5052736;28;20037;-67
2022/04/15 06:57:24;;;;;;;12.18;6.30;;;13.50;69.30;;;;;;5052382;28;20035;-66
2022/04/15 06:59:50;;;;;;;10.45;4.93;;;13.60;69.10;;;;;;5052964;28;20494;-66
2022/04/15 07:02:15;;;;;;;10.43;5.47;;;13.60;68.50;;;;;;5056541;28;20104;-66
2022/04/15 07:04:41;;;;;;;8.60;5.07;;;13.70;68.10;;;;;;5056567;28;20033;-66
2022/04/15 07:07:06;;;;;;;8.00;5.22;;;13.80;68.00;;;;;;5055824;28;20385;-65
2022/04/15 07:09:32;;;;;;;9.18;5.65;;;13.80;68.00;;;;;;5056516;28;20037;-66
2022/04/15 07:11:58;;;;;;;10.70;5.28;;;13.90;67.80;;;;;;5056238;28;20036;-65
2022/04/15 07:14:23;;;;;;;9.30;5.25;;;14.00;67.20;;;;;;5056153;28;20489;-64
2022/04/15 07:16:49;;;;;;;12.35;5.00;;;14.10;66.90;;;;;;5056194;28;20026;-65
2022/04/15 07:19:15;;;;;;;11.18;5.43;;;14.10;66.50;;;;;;5055963;28;20079;-66
2022/04/15 07:21:43;;;;;;;10.43;5.07;;;14.20;66.40;;;;;;5055917;28;20029;-67
2022/04/15 07:24:09;;;;;;;8.48;4.65;;;14.30;66.40;;;;;;5053746;28;20498;-66
2022/04/15 07:26:35;;;;;;;11.18;6.20;;;14.30;65.90;;;;;;5055563;28;20064;-70
2022/04/15 07:29:01;;;;;;;15.32;5.30;;;14.40;65.90;;;;;;5055530;28;20052;-65
2022/04/15 07:31:27;;;;;;;8.82;5.18;;;14.40;65.70;;;;;;5055692;28;20425;-69
2022/04/15 07:33:53;;;;;;;9.60;5.28;;;14.60;65.70;;;;;;5055529;28;20063;-66
2022/04/15 07:37:03;;;;;;;10.15;5.10;;;14.60;65.50;;;;;;5055401;28;20068;-66
2022/04/15 07:39:09;;;;;;;9.88;5.00;;;14.70;65.00;;;;;;5051810;28;20041;-66
2022/04/15 07:41:36;;;;;;;8.93;4.93;;;14.80;64.90;;;;;;5055132;28;20037;-66
2022/04/15 07:44:10;;;;;;;13.07;5.15;;;14.90;64.50;;;;;;5056033;28;20033;-65
2022/04/15 07:46:37;;;;;;;12.10;5.20;;;15.00;64.00;;;;;;5055769;28;20029;-66
2022/04/15 07:49:03;;;;;;;11.98;5.68;;;15.00;63.90;;;;;;5055589;28;20525;-66
2022/04/15 07:51:30;;;;;;;10.35;5.40;;;15.10;63.80;;;;;;5055725;28;20064;-65
2022/04/15 07:53:56;;;;;;;16.55;5.68;;;15.20;63.90;;;;;;5055299;28;20033;-66
2022/04/15 07:56:22;;;;;;;15.02;5.70;;;15.20;63.30;;;;;;5055426;28;20040;-69
2022/04/15 07:58:48;;;;;;;13.85;5.97;;;15.30;63.00;;;;;;5055304;28;20111;-67
2022/04/15 08:01:14;;;;;;;14.13;5.75;;;15.40;62.90;;;;;;5055514;28;20041;-67
2022/04/15 08:03:40;;;;;;;14.20;6.15;;;15.50;63.00;;;;;;5055118;28;20516;-67
2022/04/15 08:06:06;;;;;;;16.08;5.88;;;15.50;62.70;;;;;;5055095;28;20049;-66
2022/04/15 08:08:31;;;;;;;12.02;5.72;;;15.60;62.60;;;;;;5055499;28;20037;-66
2022/04/15 08:10:57;;;;;;;21.00;6.55;;;15.70;62.40;;;;;;5052400;28;20033;-66
2022/04/15 08:13:24;;;;;;;22.85;7.03;;;15.80;62.50;;;;;;5052983;28;20040;-66
2022/04/15 08:15:53;;;;;;;15.25;6.72;;;15.90;62.60;;;;;;5051762;28;20119;-66
2022/04/15 08:18:23;;;;;;;29.30;8.60;;;16.00;62.40;;;;;;5053398;28;20044;-67
2022/04/15 08:20:55;;;;;;;27.20;9.98;;;16.00;62.60;;;;;;5054282;28;20037;-67
2022/04/15 08:23:22;;;;;;;27.20;10.07;;;16.10;61.30;;;;;;5054308;28;20119;-66
2022/04/15 08:25:48;;;;;;;23.55;9.10;;;16.20;60.30;;;;;;5054707;28;20052;-68
2022/04/15 08:28:13;;;;;;;23.27;9.60;;;16.30;60.30;;;;;;5054731;28;20413;-66
2022/04/15 08:30:40;;;;;;;22.13;8.35;;;16.40;60.50;;;;;;5054640;28;20041;-66
2022/04/15 08:33:06;;;;;;;27.05;11.20;;;16.40;60.30;;;;;;5054844;28;20024;-65
2022/04/15 08:35:33;;;;;;;22.90;10.02;;;16.50;60.10;;;;;;5054785;28;20572;-66
2022/04/15 08:37:59;;;;;;;29.05;10.65;;;16.60;59.70;;;;;;5054890;28;20029;-66
2022/04/15 08:40:33;;;;;;;30.08;11.63;;;16.70;59.90;;;;;;5054217;28;20049;-66
2022/04/15 08:43:02;;;;;;;26.67;10.27;;;16.80;58.70;;;;;;5054431;28;20029;-66
2022/04/15 08:45:29;;;;;;;23.55;8.93;;;16.80;58.40;;;;;;5054814;28;20041;-66
2022/04/15 08:47:57;;;;;;;23.50;9.93;;;16.90;57.90;;;;;;5054830;28;20041;-65
2022/04/15 08:50:23;;;;;;;21.42;8.75;;;17.00;58.30;;;;;;5054615;28;20041;-65
2022/04/15 08:52:53;;;;;;;16.60;8.20;;;17.00;57.80;;;;;;5054411;28;20029;-66
2022/04/15 08:55:21;;;;;;;17.05;8.40;;;17.10;57.40;;;;;;5054540;28;20386;-65
2022/04/15 08:57:48;;;;;;;22.98;8.73;;;17.20;57.20;;;;;;5054785;28;20029;-65
2022/04/15 09:00:14;;;;;;;17.38;7.93;;;17.20;57.10;;;;;;5054486;28;20139;-67
2022/04/15 09:02:40;;;;;;;18.23;8.82;;;17.30;56.30;;;;;;5054604;28;20064;-65
2022/04/15 09:05:06;;;;;;;15.35;7.60;;;17.30;56.60;;;;;;5054226;28;20543;-65
2022/04/15 09:07:34;;;;;;;16.85;6.95;;;17.40;56.70;;;;;;5054129;28;20040;-65
2022/04/15 09:10:01;;;;;;;15.40;5.80;;;17.40;56.10;;;;;;5054188;28;20036;-65
2022/04/15 09:12:29;;;;;;;15.10;5.90;;;17.50;55.60;;;;;;5054310;28;20112;-65
2022/04/15 09:15:07;;;;;;;12.68;5.78;;;17.60;54.30;;;;;;5054017;28;20060;-65
2022/04/15 09:17:35;;;;;;;15.00;5.15;;;17.60;54.30;;;;;;5054005;28;20048;-65
2022/04/15 09:20:02;;;;;;;11.05;4.53;;;17.70;54.50;;;;;;5053875;28;20067;-66
2022/04/15 09:22:28;;;;;;;13.45;5.15;;;17.80;53.80;;;;;;5053509;28;20025;-65
2022/04/15 09:24:53;;;;;;;10.23;5.00;;;17.90;53.80;;;;;;5053529;28;20028;-66
2022/04/15 09:27:20;;;;;;;11.02;5.05;;;17.90;53.50;;;;;;5053827;28;20112;-66
2022/04/15 09:29:46;;;;;;;10.88;4.72;;;18.00;53.60;;;;;;5053848;28;20045;-65
2022/04/15 09:32:17;;;;;;;11.35;4.88;;;18.10;53.30;;;;;;5053659;28;20029;-65
2022/04/15 09:35:15;;;;;;;10.15;4.90;;;18.20;52.60;;;;;;5053615;28;20066;-68
2022/04/15 09:37:43;;;;;;;15.18;4.82;;;18.30;51.80;;;;;;5045610;28;20033;-65
2022/04/15 09:40:14;;;;;;;12.95;3.90;;;18.40;51.30;;;;;;5053723;28;20045;-66
2022/04/15 09:42:45;;;;;;;12.48;3.70;;;18.50;50.40;;;;;;5053691;28;20120;-66
2022/04/15 09:45:21;;;;;;;9.98;3.60;;;18.50;49.80;;;;;;5053570;28;20044;-66
2022/04/15 09:48:03;;;;;;;6.22;2.50;;;18.60;49.30;;;;;;5053094;28;20029;-68
2022/04/15 09:50:41;;;;;;;7.40;3.03;;;18.60;47.60;;;;;;5052951;28;20037;-66
2022/04/15 09:53:15;;;;;;;9.32;3.45;;;18.70;46.40;;;;;;5053408;28;20124;-66
2022/04/15 09:55:44;;;;;;;11.32;4.00;;;18.80;44.10;;;;;;5053326;28;20033;-66
2022/04/15 09:58:15;;;;;;;12.82;4.47;;;18.80;45.20;;;;;;5053311;28;20509;-65
2022/04/15 10:00:45;;;;;;;10.45;4.38;;;18.90;46.20;;;;;;5052790;28;20516;-66
2022/04/15 10:03:17;;;;;;;10.07;4.75;;;19.00;48.10;;;;;;5053174;28;20053;-64
2022/04/15 10:05:43;;;;;;;8.27;4.45;;;19.20;48.90;;;;;;5053002;28;20051;-64
2022/04/15 10:08:10;;;;;;;8.05;4.20;;;19.20;49.40;;;;;;5052948;28;20470;-64
2022/04/15 10:10:36;;;;;;;10.43;5.35;;;19.30;50.30;;;;;;5052979;28;20037;-64
2022/04/15 10:13:04;;;;;;;16.33;5.38;;;19.40;51.20;;;;;;5051133;28;20029;-65
2022/04/15 10:15:34;;;;;;;14.82;5.05;;;19.50;50.60;;;;;;5051853;28;20037;-64
2022/04/15 10:18:01;;;;;;;12.63;6.03;;;19.60;50.80;;;;;;5053060;28;20489;-64
2022/04/15 10:20:31;;;;;;;16.85;8.07;;;19.70;52.10;;;;;;5053089;28;20074;-65
2022/04/15 10:23:04;;;;;;;19.90;9.13;;;19.80;50.90;;;;;;5052906;28;20108;-65
2022/04/15 10:25:31;;;;;;;24.27;9.32;;;19.80;51.70;;;;;;5054417;28;20037;-65
2022/04/15 10:28:07;;;;;;;23.98;9.82;;;19.90;52.10;;;;;;5053401;28;20533;-65
2022/04/15 10:30:32;;;;;;;24.05;9.68;;;20.00;52.20;;;;;;5053131;28;20389;-65
2022/04/15 10:32:58;;;;;;;18.38;8.40;;;20.00;51.40;;;;;;5052770;28;20033;-65
2022/04/15 10:35:29;;;;;;;18.30;8.10;;;20.10;52.20;;;;;;5051806;28;20029;-64
2022/04/15 10:38:01;;;;;;;25.75;9.45;;;20.10;51.60;;;;;;5052787;28;20116;-65
2022/04/15 10:40:32;;;;;;;17.63;8.68;;;20.30;49.90;;;;;;5052673;28;20045;-66
2022/04/15 10:43:20;;;;;;;18.40;8.50;;;20.30;50.20;;;;;;5052687;28;20082;-65
2022/04/15 10:45:46;;;;;;;20.15;7.88;;;20.40;50.30;;;;;;5052720;28;20377;-65
2022/04/15 10:48:11;;;;;;;20.27;8.43;;;20.50;49.50;;;;;;5052794;28;20072;-65
2022/04/15 10:50:40;;;;;;;17.92;7.95;;;20.60;49.20;;;;;;5052791;28;20505;-65
2022/04/15 10:53:17;;;;;;;18.52;7.00;;;20.60;47.20;;;;;;5052440;28;20384;-65
2022/04/15 10:55:48;;;;;;;17.33;6.78;;;20.70;47.10;;;;;;5052679;28;20390;-65
2022/04/15 10:58:16;;;;;;;17.42;7.25;;;20.70;47.50;;;;;;5052391;28;20033;-65
2022/04/15 11:03:28;;;;;;;17.02;6.95;;;;;;;;;;5052190;28;20032;-65
2022/04/15 11:05:58;;;;;;;17.35;6.47;;;;;;;;;;5051208;28;20068;-66
2022/04/15 11:08:26;;;;;;;12.57;5.93;;;;;;;;;;5050590;28;20397;-66
2022/04/15 11:10:58;;;;;;;17.00;7.07;;;;;;;;;;5050562;28;20474;-65
2022/04/15 11:13:24;;;;;;;14.82;5.95;;;;;;;;;;5049103;28;20099;-65
2022/04/15 11:16:16;;;;;;;15.23;6.15;;;;;;;;;;5048570;28;20076;-65
2022/04/15 11:18:48;;;;;;;12.27;5.60;;;;;;;;;;5050846;28;20031;-66
2022/04/15 11:21:21;;;;;;;17.17;5.70;;;;;;;;;;5052202;28;20037;-65
2022/04/15 11:23:49;;;;;;;13.80;6.05;;;;;;;;;;5051781;28;20040;-69
2022/04/15 11:26:15;;;;;;;14.02;5.72;;;;;;;;;;5051675;28;20033;-66
2022/04/15 11:28:45;;;;;;;16.13;6.85;;;;;;;;;;5052117;28;20040;-67
2022/04/15 11:31:20;;;;;;;15.45;6.57;;;;;;;;;;5051677;28;20026;-66
2022/04/15 11:33:46;;;;;;;16.42;6.70;;;;;;;;;;5052204;28;20037;-67
2022/04/15 11:36:12;;;;;;;21.83;8.18;;;;;;;;;;5052230;28;20112;-66
2022/04/15 11:38:39;;;;;;;16.42;7.53;;;;;;;;;;5050708;28;20029;-66
2022/04/15 11:41:05;;;;;;;18.13;6.82;;;;;;;;;;5049365;28;20057;-66
2022/04/15 11:43:31;;;;;;;10.98;6.00;;;;;;;;;;5049441;28;20107;-66
2022/04/15 11:45:57;;;;;;;14.35;6.35;;;;;;;;;;5053021;28;20064;-66
2022/04/15 11:48:27;;;;;;;16.02;6.93;;;;;;;;;;5055674;28;20507;-66
2022/04/15 11:50:54;;;;;;;15.25;7.18;;;;;;;;;;5055524;28;20184;-66
2022/04/15 11:53:21;;;;;;;12.52;5.93;;;;;;;;;;5055272;28;20037;-65
2022/04/15 11:55:49;;;;;;;13.95;6.43;;;;;;;;;;5055226;28;20029;-66
2022/04/15 11:58:16;;;;;;;16.17;6.40;;;;;;;;;;5055253;28;20416;-63
2022/04/15 12:00:42;;;;;;;12.55;6.53;;;;;;;;;;5054875;28;20516;-68
2022/04/15 12:03:12;;;;;;;10.88;5.40;;;;;;;;;;5055236;28;20478;-63
2022/04/15 12:05:38;;;;;;;16.70;6.28;;;;;;;;;;5055146;28;20440;-63
2022/04/15 12:08:06;;;;;;;11.90;5.90;;;;;;;;;;5055015;28;20375;-69
2022/04/15 12:10:32;;;;;;;12.05;5.60;;;;;;;;;;5054994;28;20128;-64
2022/04/15 12:12:58;;;;;;;12.63;5.57;;;;;;;;;;5055270;28;20029;-63
2022/04/15 12:15:28;;;;;;;13.73;5.35;;;;;;;;;;5055269;28;20037;-64
2022/04/15 12:17:54;;;;;;;16.70;7.35;;;;;;;;;;5054578;28;20457;-63
2022/04/15 12:20:20;;;;;;;14.02;6.68;;;;;;;;;;5054511;28;20107;-69
2022/04/15 12:22:47;;;;;;;16.63;5.90;;;;;;;;;;5054662;28;20029;-63
2022/04/15 12:25:14;;;;;;;9.07;5.13;;;;;;;;;;5054502;28;20032;-63
2022/04/15 12:27:44;;;;;;;13.45;6.35;;;;;;;;;;5054810;28;20039;-63
2022/04/15 12:30:10;;;;;;;18.75;7.25;;;;;;;;;;5054761;28;20099;-63
2022/04/15 12:32:39;;;;;;;13.95;6.60;;;;;;;;;;5054166;28;20033;-63
2022/04/15 12:35:11;;;;;;;12.93;6.88;;;;;;;;;;5054419;28;20041;-63
2022/04/15 12:37:43;;;;;;;16.05;7.90;;;;;;;;;;5054113;28;20041;-63
2022/04/15 12:40:12;;;;;;;15.73;7.15;;;;;;;;;;5052935;28;20440;-63
2022/04/15 12:42:40;;;;;;;17.42;7.63;;;;;;;;;;5054510;28;20428;-63
2022/04/15 12:45:09;;;;;;;16.65;7.45;;;;;;;;;;5054718;28;20112;-63
2022/04/15 12:47:35;;;;;;;16.38;6.82;;;;;;;;;;5054316;28;20040;-64
2022/04/15 12:50:16;;;;;;;18.45;7.63;;;;;;;;;;5053789;28;20108;-63
2022/04/15 12:52:42;;;;;;;15.45;7.20;;;;;;;;;;5053545;28;20117;-63
2022/04/15 12:55:08;;;;;;;14.60;6.93;;;;;;;;;;5054551;28;20124;-63